Time;durP1;ratioP1;P1;durP2;ratioP2;P2;SDS_P1;SDS_P2;PMS_P1;PMS_P2;Temp;Humidity;BMP_temperature;BMP_pressure;BME280_temperature;BME280_humidity;BME280_pressure;Samples;Min_cycle;Max_cycle;Signal;HPM_P1;HPM_P2
2023/06/04 00:01:05;;;;;;;7.88;2.97;;;;;;;16.08;43.76;99502.03;5014282;28;20478;-63
2023/06/04 00:03:31;;;;;;;6.00;2.85;;;;;;;15.97;43.97;99499.91;5014265;28;20452;-62
2023/06/04 00:05:57;;;;;;;9.43;2.85;;;;;;;15.90;44.12;99501.69;5047673;28;20053;-62
2023/06/04 00:08:22;;;;;;;5.07;2.80;;;;;;;15.88;43.84;99492.22;5031096;28;20128;-63
2023/06/04 00:10:49;;;;;;;6.60;3.05;;;;;;;16.12;44.09;99502.47;5031004;28;20053;-62
2023/06/04 00:13:16;;;;;;;6.68;2.75;;;;;;;16.07;44.00;99500.38;4999994;28;20041;-62
2023/06/04 00:15:42;;;;;;;4.18;2.33;;;;;;;15.83;43.59;99506.19;5017989;28;20045;-63
2023/06/04 00:18:08;;;;;;;3.97;2.63;;;;;;;15.81;43.51;99505.53;5017944;28;20038;-63
2023/06/04 00:20:34;;;;;;;5.10;2.70;;;;;;;15.77;43.61;99504.28;5018101;28;20137;-63
2023/06/04 00:23:00;;;;;;;4.25;2.13;;;;;;;15.79;43.64;99504.91;5018018;28;20053;-64
2023/06/04 00:25:27;;;;;;;4.70;2.25;;;;;;;15.70;43.83;99508.75;5018043;28;20044;-62
2023/06/04 00:27:53;;;;;;;5.90;2.50;;;;;;;15.74;43.86;99507.34;5001752;28;20764;-61
2023/06/04 00:30:18;;;;;;;7.88;2.60;;;;;;;15.73;43.77;99511.03;5017892;28;20045;-61
2023/06/04 00:32:46;;;;;;;3.22;2.35;;;;;;;15.59;43.94;99522.66;5034253;28;20045;-62
2023/06/04 00:35:13;;;;;;;4.78;2.53;;;;;;;15.75;44.00;99519.72;5034526;28;20131;-63
2023/06/04 00:37:39;;;;;;;8.18;2.47;;;;;;;15.65;43.68;99516.56;5017523;28;20045;-63
2023/06/04 00:40:06;;;;;;;5.60;2.20;;;;;;;15.85;43.55;99514.03;5017676;28;20136;-63
2023/06/04 00:42:32;;;;;;;4.50;2.40;;;;;;;15.72;43.46;99522.78;5001651;28;20080;-62
2023/06/04 00:44:58;;;;;;;7.93;2.45;;;;;;;15.68;43.53;99515.34;5034371;28;20052;-63
2023/06/04 00:47:26;;;;;;;4.65;2.40;;;;;;;15.69;43.46;99533.03;5034016;28;20041;-62
2023/06/04 00:49:56;;;;;;;3.83;2.60;;;;;;;15.94;43.98;99528.94;5017642;28;20047;-62
2023/06/04 00:52:22;;;;;;;3.70;2.38;;;;;;;15.51;44.02;99524.66;5033731;28;20206;-62
2023/06/04 00:54:48;;;;;;;8.75;2.40;;;;;;;15.48;44.02;99527.72;5017481;28;20116;-63
2023/06/04 00:57:14;;;;;;;3.65;2.60;;;;;;;15.48;43.86;99533.91;5017304;28;20199;-62
2023/06/04 00:59:41;;;;;;;3.92;2.40;;;;;;;15.56;43.84;99539.09;5050549;28;20132;-64
2023/06/04 01:02:25;;;;;;;6.82;2.40;;;;;;;16.05;43.62;99529.19;5017273;28;20041;-63
2023/06/04 01:05:14;;;;;;;6.40;2.70;;;;;;;16.17;43.30;99521.47;5017930;28;20041;-61
2023/06/04 01:07:45;;;;;;;4.32;2.58;;;;;;;15.78;43.23;99527.34;5017150;28;20489;-62
2023/06/04 01:10:11;;;;;;;5.50;2.50;;;;;;;15.73;43.41;99527.09;5017727;28;20081;-63
2023/06/04 01:12:41;;;;;;;5.90;2.60;;;;;;;16.02;43.44;99534.94;5016983;28;20037;-63
2023/06/04 01:15:09;;;;;;;5.60;2.20;;;;;;;15.71;43.34;99549.75;5033598;28;20096;-63
2023/06/04 01:17:43;;;;;;;4.32;2.47;;;;;;;16.02;43.42;99548.34;5017175;28;20076;-63
2023/06/04 01:20:34;;;;;;;2.83;2.20;;;;;;;16.06;43.47;99544.28;5016975;28;20147;-63
2023/06/04 01:23:13;;;;;;;4.45;2.53;;;;;;;15.89;43.59;99539.38;5033294;28;20069;-63
2023/06/04 01:25:41;;;;;;;5.82;3.15;;;;;;;15.72;43.63;99540.69;5016165;28;20118;-63
2023/06/04 01:28:10;;;;;;;3.88;2.58;;;;;;;15.79;43.63;99553.09;5033435;28;20049;-63
2023/06/04 01:30:48;;;;;;;6.15;2.50;;;;;;;15.97;43.56;99558.84;5033660;28;20139;-62
2023/06/04 01:33:16;;;;;;;5.03;2.63;;;;;;;15.92;43.41;99557.75;5033417;28;20060;-62
2023/06/04 01:35:42;;;;;;;10.43;2.40;;;;;;;15.64;43.17;99567.59;5016595;28;20045;-63
2023/06/04 01:38:08;;;;;;;3.30;2.20;;;;;;;15.57;43.26;99562.19;5017004;28;20041;-62
2023/06/04 01:40:34;;;;;;;4.28;2.53;;;;;;;15.54;43.53;99567.09;4999911;28;20159;-62
2023/06/04 01:43:00;;;;;;;8.27;2.38;;;;;;;15.57;43.32;99572.91;5000267;28;20037;-63
2023/06/04 01:45:27;;;;;;;4.32;2.42;;;;;;;15.85;43.16;99570.28;5016437;28;20045;-62
2023/06/04 01:47:54;;;;;;;4.43;2.28;;;;;;;15.66;43.22;99571.75;5049449;28;20099;-62
2023/06/04 01:50:21;;;;;;;3.53;2.22;;;;;;;15.63;43.42;99576.66;5032755;28;20049;-61
2023/06/04 01:52:47;;;;;;;6.68;2.50;;;;;;;15.41;43.48;99583.03;5032800;28;20100;-61
2023/06/04 01:55:17;;;;;;;3.85;2.20;;;;;;;15.91;43.38;99586.41;5016263;28;20045;-63
2023/06/04 01:57:44;;;;;;;6.50;2.47;;;;;;;15.55;43.63;99590.16;5016609;28;20045;-62
2023/06/04 02:00:11;;;;;;;4.70;2.35;;;;;;;15.72;43.54;99584.38;5032787;28;20096;-62
2023/06/04 02:02:43;;;;;;;6.43;3.35;;;;;;;15.71;43.58;99590.75;5033091;28;20049;-63
2023/06/04 02:05:10;;;;;;;7.88;2.40;;;;;;;15.66;43.29;99592.31;5015895;28;20572;-63
2023/06/04 02:07:38;;;;;;;5.78;2.47;;;;;;;15.70;43.26;99593.63;5032718;28;20126;-62
2023/06/04 02:10:06;;;;;;;3.47;2.30;;;;;;;15.78;43.10;99598.81;5032860;28;20104;-63
2023/06/04 02:12:36;;;;;;;5.43;2.58;;;;;;;15.87;43.18;99603.88;5016418;28;20041;-62
2023/06/04 02:15:03;;;;;;;5.10;2.22;;;;;;;15.71;43.13;99601.47;5015898;28;20068;-63
2023/06/04 02:17:32;;;;;;;6.15;2.20;;;;;;;15.67;43.24;99600.16;5016310;28;20048;-63
2023/06/04 02:19:59;;;;;;;4.05;2.28;;;;;;;15.85;43.03;99602.41;5032332;28;20087;-63
2023/06/04 02:22:25;;;;;;;5.25;2.38;;;;;;;15.99;43.05;99598.84;5018501;28;20151;-61
2023/06/04 02:24:51;;;;;;;5.45;2.38;;;;;;;15.83;42.78;99607.97;5018989;28;20131;-62
2023/06/04 02:27:17;;;;;;;3.30;1.83;;;;;;;15.84;42.81;99616.81;5035378;28;20050;-62
2023/06/04 02:29:44;;;;;;;3.72;2.00;;;;;;;15.88;42.84;99623.44;5018971;28;20064;-62
2023/06/04 02:32:10;;;;;;;3.65;2.10;;;;;;;15.86;42.67;99618.28;5019348;28;20067;-62
2023/06/04 02:34:36;;;;;;;3.75;2.35;;;;;;;15.97;42.58;99622.28;5019116;28;20472;-61
2023/06/04 02:37:03;;;;;;;2.85;2.10;;;;;;;16.15;42.77;99628.00;5018344;28;20052;-62
2023/06/04 02:39:28;;;;;;;7.88;1.85;;;;;;;16.08;42.62;99629.81;5035029;28;20238;-62
2023/06/04 02:41:55;;;;;;;5.10;1.75;;;;;;;16.12;42.59;99648.00;5035238;28;20049;-63
2023/06/04 02:44:20;;;;;;;4.95;2.38;;;;;;;16.15;42.25;99636.88;5034995;28;20110;-63
2023/06/04 02:46:47;;;;;;;4.03;1.75;;;;;;;16.13;42.32;99630.06;5002368;28;20044;-62
2023/06/04 02:49:13;;;;;;;3.13;2.10;;;;;;;16.18;42.28;99651.72;5018717;28;20036;-63
2023/06/04 02:51:41;;;;;;;2.90;1.92;;;;;;;16.39;42.25;99646.38;5019121;28;20689;-62
2023/06/04 02:54:06;;;;;;;3.70;1.90;;;;;;;16.34;41.86;99656.81;5018838;28;20033;-63
2023/06/04 02:56:33;;;;;;;4.38;2.10;;;;;;;16.52;42.03;99655.34;5018524;28;20060;-63
2023/06/04 02:58:59;;;;;;;5.00;1.80;;;;;;;16.35;42.07;99656.63;5002080;28;20195;-63
2023/06/04 03:01:26;;;;;;;4.88;2.63;;;;;;;16.65;41.97;99660.78;5018414;28;20140;-63
2023/06/04 03:03:54;;;;;;;6.30;2.03;;;;;;;16.73;41.75;99667.84;5034923;28;20052;-62
2023/06/04 03:06:21;;;;;;;4.88;1.77;;;;;;;16.77;41.81;99667.25;5034699;28;20542;-62
2023/06/04 03:08:49;;;;;;;2.92;1.73;;;;;;;16.65;41.83;99660.78;5018302;28;20037;-62
2023/06/04 03:11:16;;;;;;;3.15;1.70;;;;;;;16.69;41.45;99671.97;5034873;28;20040;-62
2023/06/04 03:13:42;;;;;;;2.47;1.60;;;;;;;16.68;41.41;99676.50;5018538;28;20083;-64
2023/06/04 03:16:10;;;;;;;3.08;1.70;;;;;;;16.75;41.25;99672.03;5035082;28;20068;-64
2023/06/04 03:18:37;;;;;;;2.60;1.65;;;;;;;17.11;41.06;99679.03;5017872;28;20040;-63
2023/06/04 03:21:04;;;;;;;3.63;1.58;;;;;;;17.09;41.14;99691.81;5018091;28;20056;-62
2023/06/04 03:23:31;;;;;;;3.58;1.40;;;;;;;16.76;41.28;99697.81;5017766;28;20064;-61
2023/06/04 03:25:58;;;;;;;5.32;1.60;;;;;;;16.91;40.96;99694.19;5001988;28;20224;-62
2023/06/04 03:28:24;;;;;;;3.97;1.63;;;;;;;16.94;41.05;99701.84;5017664;28;20132;-63
2023/06/04 03:30:50;;;;;;;2.45;1.45;;;;;;;17.02;40.91;99704.38;5017838;28;20041;-62
2023/06/04 03:33:19;;;;;;;3.30;1.33;;;;;;;17.11;40.74;99706.72;5050969;28;20080;-62
2023/06/04 03:35:45;;;;;;;1.45;1.35;;;;;;;17.24;40.33;99712.13;5001626;28;20041;-63
2023/06/04 03:38:11;;;;;;;3.65;1.40;;;;;;;17.34;40.45;99714.44;5018283;28;20047;-61
2023/06/04 03:40:37;;;;;;;3.60;1.48;;;;;;;17.42;40.33;99714.28;5017554;28;20041;-63
2023/06/04 03:43:05;;;;;;;1.95;1.48;;;;;;;17.15;40.95;99707.13;5034166;28;20102;-62
2023/06/04 03:45:32;;;;;;;3.50;1.40;;;;;;;17.40;40.50;99719.03;5001843;28;20043;-63
2023/06/04 03:47:57;;;;;;;2.97;1.55;;;;;;;17.43;40.52;99718.63;5016783;28;20143;-62
2023/06/04 03:50:24;;;;;;;2.75;1.40;;;;;;;17.58;39.83;99716.66;5017996;28;20045;-62
2023/06/04 03:52:53;;;;;;;2.53;1.52;;;;;;;17.69;39.35;99722.28;5017566;28;20037;-63
2023/06/04 03:55:19;;;;;;;3.42;1.52;;;;;;;17.63;39.94;99715.03;5017634;28;20072;-63
2023/06/04 03:57:46;;;;;;;2.22;1.40;;;;;;;17.56;39.71;99734.84;5017752;28;20084;-62
2023/06/04 04:00:14;;;;;;;4.38;1.30;;;;;;;17.73;39.63;99722.69;5018266;28;20399;-62
2023/06/04 04:02:41;;;;;;;2.13;1.40;;;;;;;17.86;39.55;99722.75;5018058;28;20045;-62
2023/06/04 04:05:10;;;;;;;2.47;1.50;;;;;;;17.91;39.88;99720.28;5017507;28;20098;-64
2023/06/04 04:07:38;;;;;;;2.03;1.40;;;;;;;17.96;39.69;99736.59;5001505;28;20044;-62
2023/06/04 04:10:05;;;;;;;2.60;1.40;;;;;;;17.92;39.71;99741.59;5034174;28;20045;-64
2023/06/04 04:12:32;;;;;;;4.63;1.60;;;;;;;17.86;40.02;99741.56;5017458;28;20156;-63
2023/06/04 04:14:58;;;;;;;2.85;1.40;;;;;;;18.26;39.16;99738.75;5001309;28;20132;-62
2023/06/04 04:17:25;;;;;;;1.50;1.10;;;;;;;18.39;39.31;99744.19;5017399;28;20060;-63
2023/06/04 04:19:51;;;;;;;4.28;1.30;;;;;;;18.27;38.76;99745.78;5017599;28;20400;-63
2023/06/04 04:22:17;;;;;;;3.28;1.20;;;;;;;18.25;38.80;99745.16;5017436;28;20041;-63
2023/06/04 04:24:44;;;;;;;1.90;1.30;;;;;;;18.38;38.43;99747.91;5034485;28;20041;-63
2023/06/04 04:27:13;;;;;;;2.85;1.50;;;;;;;18.53;38.39;99754.97;5001201;28;20051;-63
2023/06/04 04:29:42;;;;;;;2.45;1.70;;;;;;;18.67;38.01;99760.13;5059663;28;20125;-63
2023/06/04 04:32:12;;;;;;;5.05;1.23;;;;;;;18.70;37.58;99757.03;5037779;28;20395;-62
2023/06/04 04:34:54;;;;;;;1.83;1.10;;;;;;;19.02;37.78;99753.47;5038761;28;20049;-62
2023/06/04 04:37:25;;;;;;;2.17;1.10;;;;;;;18.59;37.86;99759.50;5021995;28;20492;-63
2023/06/04 04:39:54;;;;;;;2.47;1.30;;;;;;;18.75;37.58;99751.00;5021061;28;20032;-61
2023/06/04 04:42:23;;;;;;;1.90;1.25;;;;;;;18.70;37.06;99742.75;5021657;28;20094;-62
2023/06/04 04:44:50;;;;;;;2.10;1.20;;;;;;;18.68;37.64;99742.97;5037249;28;20169;-62
2023/06/04 04:47:18;;;;;;;3.40;1.10;;;;;;;18.74;37.45;99752.91;5020695;28;20362;-63
2023/06/04 04:49:44;;;;;;;1.80;1.17;;;;;;;18.77;37.69;99754.34;5037252;28;20044;-62
2023/06/04 04:52:10;;;;;;;2.83;1.20;;;;;;;18.69;38.23;99759.91;5020538;28;20056;-63
2023/06/04 04:54:38;;;;;;;2.60;1.30;;;;;;;18.87;37.82;99769.03;5004882;28;20502;-63
2023/06/04 04:57:05;;;;;;;1.92;1.10;;;;;;;19.01;37.46;99769.84;5020427;28;20036;-63
2023/06/04 04:59:31;;;;;;;3.83;1.23;;;;;;;19.16;36.97;99773.16;5022878;28;20047;-63
2023/06/04 05:01:58;;;;;;;3.83;1.30;;;;;;;19.25;37.20;99772.69;5024080;28;20079;-63
2023/06/04 05:04:24;;;;;;;1.15;1.00;;;;;;;19.22;36.78;99762.34;5074353;28;20040;-63
2023/06/04 05:06:51;;;;;;;7.05;1.00;;;;;;;19.09;36.46;99775.84;5023878;28;20037;-63
2023/06/04 05:09:17;;;;;;;6.95;0.90;;;;;;;19.30;35.97;99778.31;5024281;28;20388;-64
2023/06/04 05:11:43;;;;;;;2.88;0.90;;;;;;;19.23;35.77;99779.34;5040316;28;20365;-64
2023/06/04 05:14:10;;;;;;;2.60;0.80;;;;;;;19.54;35.60;99774.94;5023886;28;20109;-64
2023/06/04 05:16:37;;;;;;;0.85;0.85;;;;;;;19.24;37.07;99773.75;5023990;28;20047;-63
2023/06/04 05:19:05;;;;;;;1.40;0.95;;;;;;;19.21;37.07;99765.25;5023675;28;20040;-63
2023/06/04 05:21:36;;;;;;;3.17;0.93;;;;;;;19.38;36.61;99779.97;5008130;28;20040;-62
2023/06/04 05:24:05;;;;;;;2.42;0.75;;;;;;;19.75;34.90;99776.53;5024382;28;20062;-63
2023/06/04 05:26:35;;;;;;;4.85;1.00;;;;;;;19.77;34.60;99777.97;5008404;28;20066;-62
2023/06/04 05:29:07;;;;;;;1.10;1.00;;;;;;;19.86;35.40;99776.69;5000390;28;20107;-64
2023/06/04 05:31:39;;;;;;;3.70;1.33;;;;;;;20.03;35.20;99771.63;4983776;28;20500;-63
2023/06/04 05:34:08;;;;;;;1.08;0.98;;;;;;;19.86;35.23;99774.00;5016442;28;20095;-63
2023/06/04 05:36:39;;;;;;;1.53;1.00;;;;;;;19.84;34.67;99768.00;4983684;28;20540;-63
2023/06/04 05:39:06;;;;;;;3.20;0.90;;;;;;;20.14;34.74;99770.16;4999498;28;20738;-63
2023/06/04 05:41:40;;;;;;;3.13;1.10;;;;;;;19.97;34.20;99767.09;5000370;28;20061;-62
2023/06/04 05:44:07;;;;;;;4.30;1.75;;;;;;;20.05;34.71;99778.47;4983255;28;20048;-63
2023/06/04 05:46:33;;;;;;;1.92;1.10;;;;;;;20.26;33.77;99793.53;4999314;28;20061;-63
2023/06/04 05:48:59;;;;;;;1.33;0.98;;;;;;;20.50;33.46;99783.81;4982876;28;20049;-63
2023/06/04 05:51:25;;;;;;;5.13;0.88;;;;;;;20.77;33.58;99796.09;4998996;28;20048;-63
2023/06/04 05:53:52;;;;;;;1.05;0.95;;;;;;;21.03;33.36;99779.69;5032131;28;20061;-64
2023/06/04 05:56:18;;;;;;;1.45;0.88;;;;;;;21.11;32.42;99787.53;4983002;28;20044;-63
2023/06/04 05:58:51;;;;;;;3.42;0.90;;;;;;;21.34;32.65;99793.13;5015084;28;20410;-62
2023/06/04 06:01:17;;;;;;;3.22;1.00;;;;;;;21.07;33.64;99786.28;4982879;28;20045;-63
2023/06/04 06:03:43;;;;;;;0.85;0.80;;;;;;;21.60;31.97;99798.25;4982645;28;20397;-64
2023/06/04 06:06:10;;;;;;;1.42;0.80;;;;;;;21.72;31.73;99791.03;5026740;28;20598;-63
2023/06/04 06:08:37;;;;;;;1.33;0.88;;;;;;;21.82;31.72;99795.94;5039584;28;20063;-62
2023/06/04 06:11:04;;;;;;;1.02;0.90;;;;;;;21.13;31.79;99790.81;5071403;28;20505;-63
2023/06/04 06:13:31;;;;;;;1.10;0.80;;;;;;;21.78;31.16;99792.84;5022973;28;20484;-63
2023/06/04 06:15:57;;;;;;;1.42;1.00;;;;;;;22.00;30.97;99785.94;5006293;28;20044;-62
2023/06/04 06:18:25;;;;;;;2.15;1.10;;;;;;;21.88;31.09;99789.63;4990667;28;20063;-64
2023/06/04 06:20:51;;;;;;;3.03;0.80;;;;;;;22.27;29.57;99791.78;5039815;28;20055;-63
2023/06/04 06:23:19;;;;;;;1.58;0.80;;;;;;;22.41;29.51;99796.81;5006285;28;20143;-64
2023/06/04 06:25:45;;;;;;;1.23;0.80;;;;;;;22.79;29.15;99797.28;5022648;28;20480;-63
2023/06/04 06:28:17;;;;;;;1.67;0.90;;;;;;;22.98;28.99;99795.31;5023174;28;20044;-63
2023/06/04 06:30:45;;;;;;;3.47;0.90;;;;;;;23.16;28.74;99806.03;5006397;28;20078;-63
2023/06/04 06:33:12;;;;;;;3.75;0.88;;;;;;;23.21;28.43;99803.44;5005829;28;20368;-63
2023/06/04 06:35:38;;;;;;;3.17;1.08;;;;;;;23.28;27.68;99798.75;5014539;28;20049;-64
2023/06/04 06:38:03;;;;;;;2.85;0.90;;;;;;;23.60;27.27;99801.94;5014536;28;20119;-63
2023/06/04 06:40:30;;;;;;;1.13;0.77;;;;;;;23.80;26.76;99799.66;5031032;28;20068;-62
2023/06/04 06:42:56;;;;;;;1.70;0.70;;;;;;;23.81;27.32;99802.13;4998071;28;20049;-63
2023/06/04 06:45:22;;;;;;;1.00;0.90;;;;;;;24.06;26.85;99802.69;5014625;28;20484;-63
2023/06/04 06:47:48;;;;;;;1.15;0.70;;;;;;;24.21;26.25;99797.56;4998032;28;20099;-64
2023/06/04 06:50:14;;;;;;;1.85;0.80;;;;;;;24.08;25.98;99789.69;4997911;28;20433;-64
2023/06/04 06:52:40;;;;;;;2.50;0.70;;;;;;;24.01;26.29;99782.75;4997768;28;20493;-63
2023/06/04 06:55:07;;;;;;;2.70;0.80;;;;;;;24.05;26.46;99781.22;4981739;28;20045;-64
2023/06/04 06:57:33;;;;;;;1.45;0.60;;;;;;;24.00;26.06;99795.47;4981806;28;20041;-64
2023/06/04 07:00:00;;;;;;;3.72;0.80;;;;;;;23.90;25.85;99797.13;4997864;28;20432;-63
2023/06/04 07:02:26;;;;;;;0.88;0.70;;;;;;;23.95;26.27;99799.97;5030281;28;20083;-63
2023/06/04 07:04:52;;;;;;;0.98;0.70;;;;;;;24.19;25.27;99807.00;5030724;28;20489;-63
2023/06/04 07:07:18;;;;;;;9.73;0.90;;;;;;;23.95;25.49;99802.69;5050336;28;20110;-63
2023/06/04 07:09:44;;;;;;;0.82;0.70;;;;;;;24.32;25.08;99820.28;5037950;28;20053;-64
2023/06/04 07:12:10;;;;;;;4.03;0.68;;;;;;;24.45;24.73;99809.94;5054785;28;20082;-63
2023/06/04 07:14:36;;;;;;;0.63;0.60;;;;;;;24.84;24.27;99802.81;5005329;28;20075;-63
2023/06/04 07:17:03;;;;;;;2.10;0.70;;;;;;;25.07;23.74;99805.34;5000604;28;20488;-63
2023/06/04 07:19:29;;;;;;;3.47;0.80;;;;;;;24.75;24.12;99815.97;5017091;28;20091;-64
2023/06/04 07:21:55;;;;;;;5.65;0.90;;;;;;;25.18;23.45;99807.16;5017756;28;20049;-64
2023/06/04 07:24:21;;;;;;;1.38;0.70;;;;;;;25.62;23.42;99803.50;4984606;28;20088;-64
2023/06/04 07:26:48;;;;;;;0.77;0.77;;;;;;;25.57;23.64;99799.91;5033796;28;20059;-64
2023/06/04 07:29:15;;;;;;;1.13;0.88;;;;;;;26.15;22.44;99808.28;4984681;28;20037;-64
2023/06/04 07:31:42;;;;;;;3.97;0.77;;;;;;;27.05;21.56;99805.66;4983769;28;20476;-64
2023/06/04 07:34:07;;;;;;;2.70;0.70;;;;;;;27.99;20.57;99805.50;4968393;28;20065;-64
2023/06/04 07:36:33;;;;;;;0.98;0.80;;;;;;;29.26;19.49;99810.91;4965476;28;20053;-64
2023/06/04 07:38:59;;;;;;;1.00;0.90;;;;;;;30.74;17.26;99814.50;4960269;28;20050;-64
2023/06/04 07:41:28;;;;;;;0.95;0.70;;;;;;;32.27;16.09;99814.38;4947343;28;20141;-64
2023/06/04 07:43:55;;;;;;;3.28;0.90;;;;;;;33.79;14.78;99817.16;4932400;28;20042;-64
2023/06/04 07:46:20;;;;;;;1.80;0.70;;;;;;;35.90;13.23;99811.31;4964972;28;20062;-65
2023/06/04 07:48:46;;;;;;;2.58;0.98;;;;;;;38.30;11.07;99828.25;4933893;28;20147;-64
2023/06/04 07:51:13;;;;;;;7.78;1.10;;;;;;;39.82;10.52;99818.88;4940120;28;20053;-65
2023/06/04 07:53:44;;;;;;;1.60;0.80;;;;;;;38.86;10.13;99799.09;4957882;28;20058;-66
2023/06/04 07:56:12;;;;;;;5.15;0.90;;;;;;;40.23;9.81;99796.38;4974586;28;20081;-65
2023/06/04 07:58:37;;;;;;;2.55;0.80;;;;;;;40.51;9.46;99795.63;4942512;28;20378;-64
2023/06/04 08:01:03;;;;;;;5.55;1.00;;;;;;;38.88;10.15;99799.56;4974380;28;20054;-64
2023/06/04 08:03:29;;;;;;;3.30;0.80;;;;;;;39.26;9.74;99805.75;4958570;28;20452;-65
2023/06/04 08:05:57;;;;;;;3.38;1.00;;;;;;;40.56;8.07;99807.38;4978767;28;20045;-65
2023/06/04 08:08:26;;;;;;;0.93;0.90;;;;;;;41.38;7.90;99797.44;5033780;28;20095;-66
2023/06/04 08:11:02;;;;;;;1.63;0.82;;;;;;;41.23;8.10;99801.78;5018558;28;20562;-66
2023/06/04 08:13:28;;;;;;;2.05;0.70;;;;;;;38.03;9.95;99798.19;5004211;28;20459;-65
2023/06/04 08:15:54;;;;;;;2.13;1.20;;;;;;;36.62;11.12;99793.09;5038242;28;20076;-64
2023/06/04 08:18:40;;;;;;;3.50;1.20;;;;;;;37.86;9.30;99809.34;5043558;28;20048;-65
2023/06/04 08:21:12;;;;;;;2.03;0.80;;;;;;;40.02;8.34;99806.03;5039390;28;20040;-65
2023/06/04 08:23:48;;;;;;;3.10;2.47;;;;;;;41.67;7.26;99808.19;5038562;28;20063;-65
2023/06/04 08:26:34;;;;;;;2.50;1.00;;;;;;;42.77;6.26;99804.84;5015316;28;20064;-65
2023/06/04 08:29:08;;;;;;;1.67;0.70;;;;;;;40.86;7.47;99803.09;5021485;28;20032;-66
2023/06/04 08:31:36;;;;;;;0.98;0.80;;;;;;;37.33;8.97;99792.44;5053561;28;20036;-64
2023/06/04 08:34:19;;;;;;;1.58;0.75;;;;;;;38.13;9.00;99806.16;5055001;28;20365;-65
2023/06/04 08:36:48;;;;;;;3.25;0.70;;;;;;;35.10;8.96;99797.69;5008976;28;20055;-65
2023/06/04 08:39:23;;;;;;;3.58;0.80;;;;;;;33.71;10.95;99793.06;5008396;28;20028;-65
2023/06/04 08:41:53;;;;;;;0.90;0.70;;;;;;;35.42;9.73;99791.91;5024551;28;20048;-66
2023/06/04 08:44:24;;;;;;;2.08;0.80;;;;;;;37.10;8.60;99796.53;5021876;28;20044;-65
2023/06/04 08:46:53;;;;;;;0.73;0.70;;;;;;;38.43;8.32;99788.31;5040204;28;20535;-65
2023/06/04 08:49:23;;;;;;;1.52;0.65;;;;;;;38.24;7.97;99804.59;5040146;28;20040;-65
2023/06/04 08:51:51;;;;;;;1.50;0.80;;;;;;;38.81;8.51;99799.31;5016108;28;20057;-65
2023/06/04 08:54:19;;;;;;;1.15;0.80;;;;;;;38.58;8.39;99793.28;4960730;28;20043;-65
2023/06/04 08:56:48;;;;;;;3.25;0.70;;;;;;;35.45;10.23;99782.97;4961300;28;20054;-68
2023/06/04 08:59:16;;;;;;;1.48;0.85;;;;;;;33.34;11.68;99795.09;4977533;28;20050;-65
2023/06/04 09:01:47;;;;;;;1.73;0.90;;;;;;;31.12;13.29;99779.94;4973979;28;20057;-66
2023/06/04 09:04:13;;;;;;;2.80;1.83;;;;;;;30.29;14.31;99787.34;4960527;28;20050;-65
2023/06/04 09:06:40;;;;;;;2.35;0.90;;;;;;;28.60;15.14;99778.38;4944690;28;20053;-65
2023/06/04 09:09:09;;;;;;;1.83;0.90;;;;;;;27.96;15.76;99784.19;4960536;28;20116;-65
2023/06/04 09:11:39;;;;;;;4.05;0.90;;;;;;;27.03;17.35;99784.09;4931201;28;20054;-65
2023/06/04 09:14:08;;;;;;;2.88;1.20;;;;;;;27.30;17.09;99775.88;4977677;28;20054;-65
2023/06/04 09:16:52;;;;;;;0.93;0.90;;;;;;;28.05;16.63;99794.59;4945162;28;20176;-64
2023/06/04 09:19:19;;;;;;;0.93;0.77;;;;;;;28.58;15.67;99792.31;4976888;28;20061;-65
2023/06/04 09:21:55;;;;;;;4.35;1.08;;;;;;;31.66;13.73;99805.19;4960904;28;20084;-64
2023/06/04 09:24:22;;;;;;;3.67;1.23;;;;;;;34.63;12.35;99809.34;4981802;28;20157;-65
2023/06/04 09:26:49;;;;;;;1.77;1.50;;;;;;;36.66;10.13;99813.47;4983634;28;20108;-65
2023/06/04 09:29:17;;;;;;;1.02;0.90;;;;;;;37.75;9.25;99805.31;5006775;28;20052;-65
2023/06/04 09:31:47;;;;;;;3.08;1.10;;;;;;;36.63;10.41;99808.56;5033515;28;20056;-65
2023/06/04 09:34:14;;;;;;;1.02;0.90;;;;;;;33.90;10.51;99817.78;5036491;28;20041;-66
2023/06/04 09:36:42;;;;;;;2.25;1.02;;;;;;;32.61;12.14;99786.69;5003789;28;20048;-65
2023/06/04 09:39:17;;;;;;;7.10;1.50;;;;;;;32.51;12.66;99800.59;5037225;28;20136;-64
2023/06/04 09:41:44;;;;;;;8.10;0.98;;;;;;;31.60;13.08;99795.38;5053752;28;20049;-63
2023/06/04 09:44:13;;;;;;;1.08;0.80;;;;;;;29.62;14.30;99806.22;5036151;28;20057;-64
2023/06/04 09:46:38;;;;;;;3.55;1.20;;;;;;;28.89;15.65;99804.09;5045047;28;20040;-60
2023/06/04 09:49:05;;;;;;;1.17;1.02;;;;;;;29.65;14.74;99807.59;5052574;28;20063;-55
2023/06/04 09:51:32;;;;;;;2.28;0.90;;;;;;;30.24;14.36;99800.28;5051727;28;20686;-55
2023/06/04 09:54:00;;;;;;;0.80;0.80;;;;;;;30.58;14.57;99793.78;5033923;28;20502;-58
2023/06/04 09:56:27;;;;;;;3.72;1.10;;;;;;;30.64;14.19;99805.53;5050880;28;20449;-59
2023/06/04 09:58:55;;;;;;;2.78;1.10;;;;;;;30.81;14.31;99806.81;5047809;28;20032;-58
2023/06/04 10:01:23;;;;;;;3.22;2.33;;;;;;;32.57;13.58;99807.63;5033572;28;20045;-57
2023/06/04 10:03:52;;;;;;;7.45;2.10;;;;;;;35.27;11.38;99806.09;5051667;28;20368;-61
2023/06/04 10:06:20;;;;;;;3.55;1.40;;;;;;;36.22;10.29;99817.28;5033834;28;20049;-61
2023/06/04 10:08:48;;;;;;;4.93;0.88;;;;;;;35.91;10.69;99805.47;5034353;28;20037;-58
2023/06/04 10:11:21;;;;;;;3.20;1.30;;;;;;;35.10;11.24;99801.28;5032239;28;20133;-58
2023/06/04 10:14:08;;;;;;;1.65;0.93;;;;;;;35.33;11.45;99804.84;5034797;28;20362;-62
2023/06/04 10:16:37;;;;;;;2.20;1.00;;;;;;;35.75;11.11;99807.03;5065420;28;20512;-58
2023/06/04 10:19:04;;;;;;;5.35;1.17;;;;;;;36.01;10.79;99799.66;5018295;28;20131;-58
2023/06/04 10:21:34;;;;;;;4.28;1.17;;;;;;;35.59;11.31;99798.34;5034687;28;20447;-58
2023/06/04 10:24:01;;;;;;;1.20;0.85;;;;;;;35.13;10.39;99800.66;5016292;28;20065;-59
2023/06/04 10:26:27;;;;;;;5.65;1.10;;;;;;;33.94;11.35;99805.00;5034698;28;20040;-60
2023/06/04 10:28:53;;;;;;;4.60;1.10;;;;;;;33.53;11.80;99798.66;5051475;28;20125;-58
2023/06/04 10:31:19;;;;;;;5.47;1.00;;;;;;;34.39;11.73;99795.81;5034621;28;20401;-59
2023/06/04 10:33:45;;;;;;;1.20;1.10;;;;;;;34.60;11.15;99796.16;5034629;28;20055;-61
2023/06/04 10:36:21;;;;;;;2.15;0.93;;;;;;;36.65;9.72;99806.28;5017988;28;20143;-58
2023/06/04 10:38:48;;;;;;;0.90;0.90;;;;;;;38.03;8.31;99795.41;5051181;28;20135;-58
2023/06/04 10:41:17;;;;;;;1.70;0.98;;;;;;;39.15;7.76;99798.19;5050663;28;20045;-59
2023/06/04 10:43:45;;;;;;;3.13;0.73;;;;;;;40.29;6.89;99780.25;5025506;28;20056;-58
2023/06/04 10:46:15;;;;;;;0.95;0.85;;;;;;;37.16;8.08;99793.25;5051874;28;20049;-63
2023/06/04 10:48:51;;;;;;;0.85;0.77;;;;;;;36.16;8.60;99784.56;5068661;28;20067;-57
2023/06/04 10:51:32;;;;;;;3.47;1.10;;;;;;;36.08;8.92;99782.59;5051807;28;20040;-62
2023/06/04 10:54:00;;;;;;;2.95;1.58;;;;;;;36.84;8.91;99785.47;5051117;28;20045;-57
2023/06/04 10:56:31;;;;;;;1.63;1.02;;;;;;;36.83;9.12;99783.84;5032075;28;20041;-58
2023/06/04 10:58:58;;;;;;;1.60;1.10;;;;;;;35.07;10.26;99771.53;5048456;28;20048;-59
2023/06/04 11:01:28;;;;;;;4.20;0.90;;;;;;;34.03;10.77;99776.44;5048499;28;20069;-61
2023/06/04 11:03:57;;;;;;;;;;;;;;;32.95;11.79;99780.94;5035988;28;20033;-62
2023/06/04 11:06:27;;;;;;;6.47;2.10;;;;;;;31.62;12.82;99773.94;5051077;28;19994;-63
2023/06/04 11:09:03;;;;;;;;;;;;;;;29.67;13.97;99778.84;5035459;28;20500;-58
2023/06/04 11:11:29;;;;;;;3.92;1.00;;;;;;;27.73;15.35;99770.13;5052213;28;20030;-59
2023/06/04 11:14:07;;;;;;;2.28;0.90;;;;;;;27.89;16.28;99780.06;5051482;28;20072;-61
2023/06/04 11:16:33;;;;;;;1.25;1.00;;;;;;;27.21;15.33;99775.53;5051735;28;20048;-58
2023/06/04 11:18:59;;;;;;;2.95;1.23;;;;;;;27.79;15.88;99785.44;5034845;28;20102;-61
2023/06/04 11:21:25;;;;;;;1.40;1.10;;;;;;;27.95;15.59;99779.00;5067898;28;20430;-59
2023/06/04 11:23:57;;;;;;;2.42;0.95;;;;;;;28.59;15.33;99787.63;5066838;28;20479;-58
2023/06/04 11:26:32;;;;;;;2.15;1.30;;;;;;;28.59;15.31;99788.47;5054783;28;20131;-59
2023/06/04 11:28:59;;;;;;;11.10;1.40;;;;;;;28.21;15.51;99774.41;5054872;28;20037;-60
2023/06/04 11:31:26;;;;;;;2.55;1.27;;;;;;;27.98;15.77;99786.66;5037729;28;20105;-56
2023/06/04 11:33:53;;;;;;;2.97;1.40;;;;;;;27.85;16.43;99776.16;5054604;28;20032;-61
2023/06/04 11:36:26;;;;;;;2.17;1.20;;;;;;;27.97;16.71;99780.34;5054589;28;20068;-57
2023/06/04 11:38:57;;;;;;;3.33;1.70;;;;;;;27.83;16.33;99794.75;5072086;28;20040;-60